Time;durP1;ratioP1;P1;durP2;ratioP2;P2;SDS_P1;SDS_P2;PMS_P1;PMS_P2;Temp;Humidity;BMP_temperature;BMP_pressure;BME280_temperature;BME280_humidity;BME280_pressure;Samples;Min_cycle;Max_cycle;Signal;HPM_P1;HPM_P2
2021/03/27 00:00:23;;;;;;;4.93;4.50;;;13.60;97.50;;;;;;5056799;28;20479;-79
2021/03/27 00:02:55;;;;;;;4.37;4.03;;;13.40;99.50;;;;;;5058398;28;21114;-80
2021/03/27 00:05:27;;;;;;;4.47;4.07;;;13.20;99.90;;;;;;5047629;28;20555;-79
2021/03/27 00:08:04;;;;;;;3.83;3.30;;;13.30;99.90;;;;;;5069666;28;20844;-79
2021/03/27 00:10:37;;;;;;;2.70;2.50;;;13.50;99.90;;;;;;5053165;28;20509;-79
2021/03/27 00:13:17;;;;;;;10.83;3.87;;;13.40;99.90;;;;;;5054509;28;21033;-80
2021/03/27 00:16:05;;;;;;;4.00;3.60;;;13.40;99.90;;;;;;5059620;28;20450;-79
2021/03/27 00:18:41;;;;;;;3.50;3.23;;;13.40;99.90;;;;;;5050385;28;20597;-78
2021/03/27 00:21:16;;;;;;;3.80;3.50;;;13.40;99.90;;;;;;5061126;28;20489;-80
2021/03/27 00:23:51;;;;;;;4.40;3.10;;;13.60;99.90;;;;;;5046141;28;20458;-80
2021/03/27 00:26:26;;;;;;;7.17;3.57;;;13.60;99.90;;;;;;5050642;28;20452;-80
2021/03/27 00:28:58;;;;;;;5.47;3.20;;;13.20;99.90;;;;;;5058406;28;20806;-80
2021/03/27 00:31:29;;;;;;;4.70;3.70;;;13.20;99.90;;;;;;5061081;28;20470;-80
2021/03/27 00:34:00;;;;;;;4.97;3.10;;;13.10;99.90;;;;;;5058568;28;20504;-79
2021/03/27 00:36:30;;;;;;;4.60;3.10;;;12.90;99.90;;;;;;5045545;28;20490;-79
2021/03/27 00:39:02;;;;;;;3.30;3.00;;;13.00;99.90;;;;;;5040823;28;20465;-79
2021/03/27 00:41:35;;;;;;;3.93;2.80;;;13.10;99.90;;;;;;5043165;28;20476;-79
2021/03/27 00:44:08;;;;;;;3.33;2.83;;;13.20;99.90;;;;;;5054808;28;20458;-80
2021/03/27 00:46:37;;;;;;;3.30;3.00;;;13.30;99.90;;;;;;5059632;28;20456;-79
2021/03/27 00:49:07;;;;;;;3.00;2.70;;;13.50;99.90;;;;;;5038746;28;22340;-80
2021/03/27 00:51:37;;;;;;;2.93;2.70;;;13.50;99.90;;;;;;5040394;28;20485;-80
2021/03/27 00:54:10;;;;;;;2.70;2.40;;;13.40;99.90;;;;;;5042288;28;20457;-80
2021/03/27 00:56:46;;;;;;;4.25;2.92;;;13.30;99.90;;;;;;5042145;28;20455;-81
2021/03/27 00:59:18;;;;;;;3.63;3.23;;;13.50;99.90;;;;;;5045714;28;20214;-80
2021/03/27 01:01:48;;;;;;;3.20;2.80;;;13.70;99.90;;;;;;5056321;28;20453;-80
2021/03/27 01:04:19;;;;;;;5.67;3.53;;;13.70;99.90;;;;;;5049180;28;20475;-81
2021/03/27 01:06:50;;;;;;;3.40;3.10;;;13.60;99.90;;;;;;5051512;28;20446;-80
2021/03/27 01:09:20;;;;;;;3.77;3.47;;;13.30;99.90;;;;;;5055180;28;20665;-80
2021/03/27 01:11:55;;;;;;;4.90;3.50;;;12.90;99.90;;;;;;5047548;28;20465;-80
2021/03/27 01:14:27;;;;;;;4.00;3.70;;;12.80;99.90;;;;;;5067299;28;21750;-80
2021/03/27 01:16:57;;;;;;;5.37;3.73;;;12.80;99.90;;;;;;5061657;28;20472;-80
2021/03/27 01:19:31;;;;;;;4.10;3.70;;;12.60;99.90;;;;;;5059011;28;20849;-81
2021/03/27 01:22:02;;;;;;;3.70;3.40;;;12.70;99.90;;;;;;5056388;28;20267;-81
2021/03/27 01:24:30;;;;;;;4.13;2.97;;;12.70;99.90;;;;;;5050324;28;20464;-80
2021/03/27 01:27:00;;;;;;;4.27;3.13;;;12.70;99.90;;;;;;5048957;28;20455;-80
2021/03/27 01:29:34;;;;;;;4.65;4.10;;;12.80;99.90;;;;;;5058418;28;20468;-81
2021/03/27 01:32:15;;;;;;;4.63;3.70;;;12.60;99.90;;;;;;5065538;28;20282;-80
2021/03/27 01:34:46;;;;;;;3.20;2.87;;;12.70;99.90;;;;;;5047051;28;20988;-80
2021/03/27 01:37:17;;;;;;;2.93;2.63;;;12.60;99.90;;;;;;5063849;28;20479;-78
2021/03/27 01:39:52;;;;;;;3.60;3.30;;;12.40;99.90;;;;;;5042499;28;20471;-79
2021/03/27 01:42:44;;;;;;;3.70;3.40;;;12.40;99.90;;;;;;5058639;28;20465;-80
2021/03/27 01:45:31;;;;;;;4.80;3.20;;;12.50;99.90;;;;;;5064118;28;20516;-82
2021/03/27 01:48:08;;;;;;;5.80;3.33;;;12.50;1.00;;;;;;5053337;28;20457;-84
2021/03/27 01:50:43;;;;;;;3.63;3.43;;;12.50;1.00;;;;;;5048288;28;20480;-84
2021/03/27 01:53:22;;;;;;;3.47;3.17;;;12.40;1.00;;;;;;5051117;28;20470;-81
2021/03/27 01:56:03;;;;;;;4.00;3.70;;;12.40;1.00;;;;;;5050311;28;20459;-84
2021/03/27 01:58:36;;;;;;;3.57;3.27;;;12.20;1.00;;;;;;5047113;28;20455;-82
2021/03/27 02:01:09;;;;;;;5.17;4.70;;;12.50;1.00;;;;;;5049250;28;20475;-83
2021/03/27 02:03:42;;;;;;;3.73;3.37;;;12.80;1.00;;;;;;5054259;28;20513;-82
2021/03/27 02:06:16;;;;;;;3.87;3.50;;;12.70;1.00;;;;;;5056795;28;20546;-82
2021/03/27 02:08:54;;;;;;;5.23;3.70;;;12.70;1.00;;;;;;5047388;28;20870;-82
2021/03/27 02:11:31;;;;;;;4.10;3.70;;;12.80;1.00;;;;;;5047453;28;20477;-83
2021/03/27 02:14:04;;;;;;;4.03;3.63;;;12.60;1.00;;;;;;5060658;28;20825;-83
2021/03/27 02:16:35;;;;;;;4.43;3.80;;;12.50;12.20;;;;;;5061714;28;20470;-82
2021/03/27 02:19:21;;;;;;;3.83;3.43;;;12.40;92.20;;;;;;5046631;28;20459;-81
2021/03/27 02:21:59;;;;;;;7.03;4.37;;;12.60;35.00;;;;;;5061013;28;20504;-83
2021/03/27 02:24:46;;;;;;;5.20;4.07;;;12.60;1.00;;;;;;5065197;28;20460;-83
2021/03/27 02:27:17;;;;;;;3.97;3.57;;;12.60;51.60;;;;;;5064780;28;20487;-83
2021/03/27 02:30:11;;;;;;;5.10;3.20;;;12.80;1.00;;;;;;5052357;28;20470;-82
2021/03/27 02:32:51;;;;;;;4.37;3.47;;;12.80;1.00;;;;;;5062836;28;20452;-82
2021/03/27 02:35:31;;;;;;;4.33;3.93;;;12.70;43.70;;;;;;5052839;28;20467;-83
2021/03/27 02:38:12;;;;;;;4.33;3.10;;;12.60;99.90;;;;;;5060154;28;20498;-83
2021/03/27 02:40:43;;;;;;;4.60;3.80;;;12.40;99.90;;;;;;5058959;28;20517;-82
2021/03/27 02:43:17;;;;;;;4.30;3.90;;;12.10;1.00;;;;;;5057496;28;20457;-83
2021/03/27 02:45:58;;;;;;;3.70;3.40;;;12.20;1.00;;;;;;5058233;28;20469;-83
2021/03/27 02:48:42;;;;;;;3.07;2.77;;;12.20;1.00;;;;;;5060754;28;20458;-82
2021/03/27 02:51:15;;;;;;;3.93;3.53;;;12.10;1.00;;;;;;5055477;28;20904;-82
2021/03/27 02:53:47;;;;;;;2.80;2.60;;;12.10;1.00;;;;;;5064914;28;20942;-82
2021/03/27 02:56:24;;;;;;;3.37;2.73;;;12.00;1.00;;;;;;5054127;28;20499;-84
2021/03/27 02:59:08;;;;;;;2.93;2.30;;;12.00;1.00;;;;;;5058744;28;20456;-84
2021/03/27 03:01:45;;;;;;;3.00;2.60;;;12.10;1.00;;;;;;5055749;28;21041;-84
2021/03/27 03:04:20;;;;;;;2.63;2.43;;;11.90;1.00;;;;;;5072770;28;20460;-84
2021/03/27 03:06:51;;;;;;;3.43;3.13;;;11.90;1.00;;;;;;5072906;28;20454;-84
2021/03/27 03:09:25;;;;;;;3.90;3.03;;;11.90;99.90;;;;;;5071017;28;20449;-83
2021/03/27 03:12:03;;;;;;;2.53;2.20;;;11.90;1.00;;;;;;5067917;28;20446;-82
2021/03/27 03:14:38;;;;;;;4.07;2.97;;;12.00;1.00;;;;;;5068228;28;20451;-84
2021/03/27 03:17:17;;;;;;;2.57;2.37;;;11.90;1.00;;;;;;5058357;28;20474;-83
2021/03/27 03:19:50;;;;;;;2.10;2.00;;;11.90;1.00;;;;;;5069901;28;20470;-83
2021/03/27 03:22:23;;;;;;;2.03;1.80;;;11.80;1.00;;;;;;5067066;28;20451;-83
2021/03/27 03:24:57;;;;;;;1.80;1.70;;;11.60;1.00;;;;;;5064583;28;20534;-84
2021/03/27 03:27:37;;;;;;;1.40;1.30;;;11.70;1.00;;;;;;5063543;28;20462;-84
2021/03/27 03:30:22;;;;;;;1.70;1.60;;;11.50;1.00;;;;;;5063314;28;20523;-83
2021/03/27 03:33:09;;;;;;;1.97;1.87;;;11.70;1.00;;;;;;5065028;28;20459;-83
2021/03/27 03:35:44;;;;;;;1.80;1.70;;;11.70;99.90;;;;;;5057393;28;20502;-82
2021/03/27 03:38:38;;;;;;;1.43;1.33;;;11.50;1.00;;;;;;5054104;28;22507;-84
2021/03/27 03:41:12;;;;;;;0.90;0.80;;;11.50;1.00;;;;;;5060601;28;21042;-84
2021/03/27 03:43:49;;;;;;;1.00;0.80;;;11.70;1.00;;;;;;5055410;28;20938;-84
2021/03/27 03:46:29;;;;;;;2.10;0.60;;;11.70;1.00;;;;;;5060095;28;20463;-84
2021/03/27 03:49:09;;;;;;;0.60;0.50;;;11.70;99.90;;;;;;5068652;28;20880;-83
2021/03/27 03:51:56;;;;;;;0.70;0.60;;;11.80;99.90;;;;;;5057166;28;20523;-84
2021/03/27 03:54:29;;;;;;;1.50;0.50;;;11.90;99.90;;;;;;5062745;28;20495;-82
2021/03/27 03:57:05;;;;;;;0.50;0.50;;;12.00;99.90;;;;;;5054001;28;20475;-84
2021/03/27 03:59:39;;;;;;;0.47;0.47;;;11.90;99.90;;;;;;5065520;28;20538;-85
2021/03/27 04:02:15;;;;;;;0.50;0.50;;;11.80;99.90;;;;;;5059790;28;20452;-84
2021/03/27 04:04:47;;;;;;;0.50;0.40;;;11.90;99.90;;;;;;5067342;28;20511;-84
2021/03/27 04:07:19;;;;;;;0.40;0.40;;;11.90;99.90;;;;;;5056817;28;20535;-83
2021/03/27 04:09:52;;;;;;;0.60;0.60;;;11.90;99.90;;;;;;5070270;28;20477;-84
2021/03/27 04:12:28;;;;;;;0.43;0.43;;;12.00;99.90;;;;;;5067444;28;20446;-84
2021/03/27 04:15:22;;;;;;;0.83;0.60;;;12.10;99.90;;;;;;5055265;28;20858;-84
2021/03/27 04:18:08;;;;;;;0.50;0.50;;;12.10;99.90;;;;;;5054439;28;21267;-85
2021/03/27 04:20:51;;;;;;;1.00;0.50;;;12.10;99.90;;;;;;5062656;28;20473;-83
2021/03/27 04:23:36;;;;;;;0.40;0.40;;;12.20;99.90;;;;;;5059419;28;20451;-83
2021/03/27 04:26:19;;;;;;;0.57;0.57;;;12.20;99.90;;;;;;5064673;28;20447;-83
2021/03/27 04:29:13;;;;;;;0.80;0.60;;;12.30;99.90;;;;;;5056730;28;20450;-83
2021/03/27 04:31:44;;;;;;;0.60;0.60;;;12.30;99.90;;;;;;5047618;28;20491;-81
2021/03/27 04:34:16;;;;;;;0.60;0.50;;;12.30;99.90;;;;;;5063438;28;20447;-84
2021/03/27 04:36:52;;;;;;;2.23;0.50;;;12.20;99.90;;;;;;5061749;28;20479;-83
2021/03/27 04:39:25;;;;;;;1.17;0.50;;;12.30;99.90;;;;;;5062461;28;20439;-83
2021/03/27 04:41:59;;;;;;;0.60;0.60;;;11.90;99.90;;;;;;5063185;28;20520;-82
2021/03/27 04:44:36;;;;;;;2.03;0.57;;;11.90;99.90;;;;;;5058065;28;20451;-84
2021/03/27 04:47:13;;;;;;;1.40;0.90;;;11.90;99.90;;;;;;5061208;28;20827;-85
2021/03/27 04:49:50;;;;;;;0.50;0.50;;;12.00;99.90;;;;;;5065022;28;20478;-85
2021/03/27 04:52:27;;;;;;;0.50;0.50;;;11.90;99.90;;;;;;5065908;28;20566;-86
2021/03/27 04:55:01;;;;;;;2.03;0.60;;;11.90;99.90;;;;;;5067578;28;20502;-84
2021/03/27 04:57:37;;;;;;;0.40;0.40;;;11.90;99.90;;;;;;5063992;28;20478;-84
2021/03/27 05:00:22;;;;;;;0.90;0.50;;;11.70;99.90;;;;;;5060330;28;20645;-84
2021/03/27 05:03:00;;;;;;;1.17;0.60;;;11.70;99.90;;;;;;5055848;28;20916;-84
2021/03/27 05:05:32;;;;;;;0.60;0.60;;;11.70;99.90;;;;;;5062230;28;20487;-84
2021/03/27 05:08:08;;;;;;;0.90;0.50;;;11.70;99.90;;;;;;5066639;28;20996;-82
2021/03/27 05:10:41;;;;;;;1.07;0.50;;;11.80;99.90;;;;;;5068414;28;20474;-82
2021/03/27 05:13:18;;;;;;;0.63;0.60;;;11.80;99.90;;;;;;5064448;28;20595;-83
2021/03/27 05:15:50;;;;;;;0.50;0.50;;;11.80;99.90;;;;;;5055193;28;21339;-82
2021/03/27 05:18:47;;;;;;;0.50;0.50;;;11.60;99.90;;;;;;5061905;28;20477;-82
2021/03/27 05:21:48;;;;;;;0.40;0.40;;;11.50;99.90;;;;;;5059895;28;20479;-82
2021/03/27 05:24:26;;;;;;;0.40;0.40;;;11.50;99.90;;;;;;5053304;28;20452;-83
2021/03/27 05:27:15;;;;;;;0.50;0.50;;;11.50;99.90;;;;;;5059391;28;20462;-82
2021/03/27 05:29:59;;;;;;;0.40;0.40;;;11.50;99.90;;;;;;5063172;28;20833;-82
2021/03/27 05:32:46;;;;;;;0.50;0.50;;;11.40;99.90;;;;;;5061083;28;20475;-82
2021/03/27 05:35:27;;;;;;;1.03;0.70;;;11.30;99.90;;;;;;5055016;28;20459;-82
2021/03/27 05:38:08;;;;;;;0.50;0.50;;;11.40;99.90;;;;;;5067776;28;20576;-82
2021/03/27 05:41:19;;;;;;;0.40;0.40;;;11.40;99.90;;;;;;5056594;28;20465;-82
2021/03/27 05:44:13;;;;;;;0.50;0.50;;;11.50;99.90;;;;;;5061087;28;20471;-81
2021/03/27 05:47:19;;;;;;;0.40;0.40;;;11.40;99.90;;;;;;5062576;28;20460;-81
2021/03/27 05:50:17;;;;;;;0.40;0.40;;;11.30;99.90;;;;;;5067379;28;20509;-82
2021/03/27 05:53:04;;;;;;;0.50;0.50;;;11.40;99.90;;;;;;5055910;28;20523;-81
2021/03/27 05:55:40;;;;;;;0.40;0.40;;;11.40;99.90;;;;;;5062797;28;20476;-83
2021/03/27 05:58:35;;;;;;;0.50;0.50;;;11.20;99.90;;;;;;5067218;28;21000;-82
2021/03/27 06:01:18;;;;;;;2.23;1.13;;;11.30;99.90;;;;;;5057235;28;20485;-81
2021/03/27 06:04:00;;;;;;;0.53;0.50;;;11.30;99.90;;;;;;5060660;28;20488;-81
2021/03/27 06:06:40;;;;;;;0.60;0.60;;;11.40;99.90;;;;;;5065121;28;20459;-82
2021/03/27 06:09:30;;;;;;;0.50;0.50;;;11.30;99.90;;;;;;5062227;28;20959;-82
2021/03/27 06:12:28;;;;;;;0.50;0.50;;;11.30;99.90;;;;;;5047489;28;20510;-82
2021/03/27 06:15:15;;;;;;;0.73;0.60;;;11.20;99.90;;;;;;5052684;28;20465;-82
2021/03/27 06:18:10;;;;;;;1.07;0.50;;;11.20;99.90;;;;;;5055032;28;20479;-84
2021/03/27 06:20:51;;;;;;;0.50;0.50;;;11.20;99.90;;;;;;5053501;28;20556;-83
2021/03/27 06:23:40;;;;;;;0.50;0.50;;;11.40;99.90;;;;;;5061407;28;20912;-84
2021/03/27 06:26:26;;;;;;;0.60;0.60;;;11.40;99.90;;;;;;5059363;28;20465;-84
2021/03/27 06:29:25;;;;;;;0.50;0.50;;;11.50;99.90;;;;;;5058414;28;21215;-85
2021/03/27 06:32:27;;;;;;;0.70;0.70;;;11.40;99.90;;;;;;5047594;28;20467;-83
2021/03/27 06:34:59;;;;;;;0.60;0.60;;;11.40;99.90;;;;;;5061268;28;20463;-83
2021/03/27 06:37:57;;;;;;;0.93;0.50;;;11.40;99.90;;;;;;5063334;28;20469;-84
2021/03/27 06:40:57;;;;;;;0.80;0.77;;;11.40;99.90;;;;;;5065414;28;20529;-82
2021/03/27 06:44:05;;;;;;;0.63;0.63;;;11.50;99.90;;;;;;5061326;28;20537;-85
2021/03/27 06:47:08;;;;;;;0.60;0.60;;;11.50;99.90;;;;;;5009373;28;20470;-83
2021/03/27 06:50:03;;;;;;;1.20;0.70;;;11.50;99.90;;;;;;5029632;28;20300;-84
2021/03/27 06:52:51;;;;;;;0.50;0.50;;;11.50;99.90;;;;;;5038124;28;20461;-83
2021/03/27 06:55:33;;;;;;;1.20;0.60;;;11.20;99.90;;;;;;5061708;28;20442;-85
2021/03/27 06:58:35;;;;;;;1.60;0.50;;;11.50;99.90;;;;;;5050868;28;20478;-77
2021/03/27 07:01:39;;;;;;;0.70;0.70;;;11.60;99.90;;;;;;5057822;28;20988;-80
2021/03/27 07:04:49;;;;;;;0.70;0.70;;;11.40;99.90;;;;;;5058141;28;20462;-80
2021/03/27 07:07:53;;;;;;;1.13;0.60;;;11.30;99.90;;;;;;5067128;28;20460;-80
2021/03/27 07:10:56;;;;;;;2.83;0.60;;;11.20;99.90;;;;;;5053553;28;20486;-82
2021/03/27 07:13:49;;;;;;;0.87;0.60;;;11.10;99.90;;;;;;5064258;28;20461;-81
2021/03/27 07:16:34;;;;;;;0.53;0.50;;;11.00;99.90;;;;;;5053542;28;20454;-83
2021/03/27 07:19:54;;;;;;;1.50;0.80;;;11.10;99.90;;;;;;5056311;28;20501;-82
2021/03/27 07:22:42;;;;;;;1.33;0.60;;;11.30;99.90;;;;;;5051648;28;20197;-80
2021/03/27 07:25:34;;;;;;;0.67;0.60;;;11.50;99.90;;;;;;5061304;28;20455;-83
2021/03/27 07:28:42;;;;;;;1.40;0.80;;;11.90;99.90;;;;;;5048779;28;20448;-83
2021/03/27 07:31:45;;;;;;;0.77;0.77;;;11.90;99.90;;;;;;4976731;28;20613;-82
2021/03/27 07:34:42;;;;;;;0.87;0.70;;;12.00;99.90;;;;;;4992422;28;20448;-83
2021/03/27 07:37:48;;;;;;;0.80;0.60;;;11.90;99.90;;;;;;5046592;28;20471;-82
2021/03/27 07:40:36;;;;;;;1.07;0.60;;;12.10;99.90;;;;;;5053435;28;21084;-83
2021/03/27 07:43:45;;;;;;;2.63;0.70;;;12.20;96.90;;;;;;5051683;28;20456;-82
2021/03/27 07:46:54;;;;;;;0.60;0.60;;;11.80;93.90;;;;;;5057600;28;20890;-83
2021/03/27 07:50:02;;;;;;;1.23;0.60;;;11.70;95.30;;;;;;4994136;28;20474;-81
2021/03/27 07:52:40;;;;;;;0.60;0.60;;;12.00;97.20;;;;;;5059782;28;20791;-82
2021/03/27 07:55:40;;;;;;;1.17;0.80;;;12.30;97.40;;;;;;5070346;28;20479;-80
2021/03/27 07:58:49;;;;;;;0.70;0.60;;;12.70;97.20;;;;;;5062601;28;20853;-81
2021/03/27 08:01:32;;;;;;;2.30;0.73;;;12.90;96.60;;;;;;5040048;28;20470;-80
2021/03/27 08:04:37;;;;;;;0.70;0.70;;;13.20;97.50;;;;;;5051028;28;20468;-80
2021/03/27 08:07:11;;;;;;;2.40;0.60;;;13.60;97.60;;;;;;5061552;28;20517;-78
2021/03/27 08:10:14;;;;;;;0.67;0.67;;;13.70;96.90;;;;;;5055377;28;20461;-79
2021/03/27 08:13:33;;;;;;;1.73;0.70;;;13.90;97.30;;;;;;5055029;28;20464;-82
2021/03/27 08:16:31;;;;;;;2.50;0.70;;;14.10;96.60;;;;;;5000879;28;20470;-83
2021/03/27 08:19:46;;;;;;;0.70;0.70;;;14.20;94.30;;;;;;5016112;28;20479;-77
2021/03/27 08:22:39;;;;;;;0.80;0.63;;;13.90;77.40;;;;;;5055330;28;20465;-79
2021/03/27 08:25:14;;;;;;;0.60;0.60;;;13.60;73.70;;;;;;5051227;28;20458;-77
2021/03/27 08:28:01;;;;;;;0.60;0.60;;;13.50;72.30;;;;;;5054277;28;20451;-78
2021/03/27 08:30:57;;;;;;;0.70;0.63;;;13.60;69.90;;;;;;5056890;28;20468;-77
2021/03/27 08:34:01;;;;;;;1.93;0.57;;;13.50;63.10;;;;;;5054246;28;20454;-77
2021/03/27 08:37:10;;;;;;;1.07;0.60;;;13.40;60.50;;;;;;5059796;28;20548;-82
2021/03/27 08:40:15;;;;;;;0.70;0.70;;;13.10;55.00;;;;;;5052435;28;20476;-79
2021/03/27 08:43:35;;;;;;;4.40;0.90;;;13.30;56.90;;;;;;5051489;28;20452;-77
2021/03/27 08:46:41;;;;;;;0.90;0.80;;;13.50;69.10;;;;;;5051125;28;20228;-80
2021/03/27 08:49:41;;;;;;;1.02;0.60;;;13.60;60.30;;;;;;5042806;28;20439;-76
2021/03/27 08:52:44;;;;;;;0.73;0.60;;;13.80;62.40;;;;;;5051797;28;20588;-78
2021/03/27 08:55:29;;;;;;;0.70;0.50;;;13.70;58.00;;;;;;5050495;28;20457;-77
2021/03/27 08:58:33;;;;;;;0.70;0.57;;;13.90;59.90;;;;;;5054473;28;20841;-82
2021/03/27 09:01:37;;;;;;;2.00;0.70;;;13.90;59.20;;;;;;4985033;28;20477;-82
2021/03/27 09:04:39;;;;;;;2.27;0.90;;;13.90;57.70;;;;;;5040474;28;20961;-77
2021/03/27 09:07:35;;;;;;;1.10;0.90;;;14.20;60.30;;;;;;5047929;28;20446;-76
2021/03/27 09:10:35;;;;;;;1.92;0.70;;;14.10;50.60;;;;;;5050331;28;20453;-78
2021/03/27 09:13:31;;;;;;;2.13;0.67;;;14.10;47.40;;;;;;5042758;28;20463;-78
2021/03/27 09:16:35;;;;;;;2.37;0.60;;;13.80;42.80;;;;;;5052998;28;20448;-76
2021/03/27 09:19:29;;;;;;;12.40;0.90;;;13.80;42.40;;;;;;5049016;28;21207;-79
2021/03/27 09:22:32;;;;;;;1.90;0.47;;;13.20;31.30;;;;;;5046808;28;20472;-78
2021/03/27 09:25:13;;;;;;;1.83;0.50;;;13.10;32.00;;;;;;5049936;28;20459;-78
2021/03/27 09:28:01;;;;;;;1.03;0.60;;;12.70;26.10;;;;;;5048356;28;20552;-78
2021/03/27 09:30:35;;;;;;;0.70;0.70;;;12.70;26.10;;;;;;5050986;28;20470;-78
2021/03/27 09:33:09;;;;;;;0.87;0.60;;;12.60;25.30;;;;;;5048751;28;20518;-78
2021/03/27 09:35:56;;;;;;;0.57;0.57;;;12.60;26.40;;;;;;5047357;28;21025;-77
2021/03/27 09:38:45;;;;;;;0.57;0.57;;;12.70;26.10;;;;;;5033249;28;20476;-78
2021/03/27 09:41:45;;;;;;;0.63;0.53;;;12.70;23.80;;;;;;5046729;28;20636;-77
2021/03/27 09:44:36;;;;;;;1.30;0.60;;;12.50;21.40;;;;;;5046011;28;20458;-77
2021/03/27 09:47:22;;;;;;;0.57;0.50;;;12.40;22.60;;;;;;5048958;28;20461;-78
2021/03/27 09:49:59;;;;;;;1.33;0.67;;;12.70;26.10;;;;;;5057672;28;20475;-83
2021/03/27 09:52:40;;;;;;;5.90;0.90;;;13.00;36.10;;;;;;5055503;28;20449;-81
2021/03/27 09:55:24;;;;;;;1.50;0.80;;;13.40;37.30;;;;;;5058633;28;21359;-82
2021/03/27 09:57:56;;;;;;;0.90;0.70;;;13.50;37.90;;;;;;5053245;28;20483;-83
2021/03/27 10:00:54;;;;;;;1.80;0.60;;;13.70;39.40;;;;;;5058305;28;20535;-80
2021/03/27 10:03:31;;;;;;;1.37;0.70;;;13.80;39.50;;;;;;5048552;28;20453;-82
2021/03/27 10:06:30;;;;;;;1.87;0.63;;;13.90;38.00;;;;;;5050222;28;20436;-83
2021/03/27 10:09:04;;;;;;;1.63;0.50;;;14.10;38.70;;;;;;5036947;28;20467;-82
2021/03/27 10:11:35;;;;;;;0.60;0.60;;;14.10;39.30;;;;;;5057299;28;20589;-85
2021/03/27 10:14:15;;;;;;;1.30;0.50;;;14.00;35.40;;;;;;5059607;28;21007;-80
2021/03/27 10:16:50;;;;;;;1.37;0.50;;;13.90;34.80;;;;;;5048576;28;20462;-81
2021/03/27 10:19:34;;;;;;;1.27;0.50;;;14.00;36.10;;;;;;5046685;28;20486;-77
2021/03/27 10:22:18;;;;;;;1.83;1.02;;;14.10;33.20;;;;;;5051633;28;20485;-77
2021/03/27 10:25:08;;;;;;;2.50;0.70;;;14.40;37.00;;;;;;5059381;28;20206;-78
2021/03/27 10:28:04;;;;;;;1.40;1.00;;;14.50;35.00;;;;;;5052034;28;20531;-78
2021/03/27 10:30:41;;;;;;;1.73;0.60;;;14.60;36.10;;;;;;5047538;28;20523;-76
2021/03/27 10:33:19;;;;;;;0.63;0.60;;;14.80;35.20;;;;;;5047148;28;20481;-77
2021/03/27 10:36:26;;;;;;;0.63;0.60;;;14.80;30.90;;;;;;5048766;28;20470;-77
2021/03/27 10:39:26;;;;;;;2.70;0.50;;;14.80;31.70;;;;;;5057099;28;20473;-78
2021/03/27 10:42:17;;;;;;;1.00;0.70;;;14.70;29.00;;;;;;5054376;28;20458;-78
2021/03/27 10:44:55;;;;;;;0.70;0.50;;;14.70;28.50;;;;;;5046902;28;20485;-78
2021/03/27 10:47:31;;;;;;;0.73;0.57;;;14.70;28.40;;;;;;5044223;28;20454;-78
2021/03/27 10:50:11;;;;;;;1.63;0.60;;;14.70;29.30;;;;;;5059216;28;20481;-76
2021/03/27 10:53:11;;;;;;;1.13;0.50;;;14.80;29.50;;;;;;5041729;28;20455;-77
2021/03/27 10:55:59;;;;;;;3.33;0.50;;;14.90;27.50;;;;;;5046413;28;20541;-78
2021/03/27 10:58:34;;;;;;;2.10;0.80;;;14.90;28.20;;;;;;5047783;28;20485;-78
2021/03/27 11:01:21;;;;;;;1.77;1.10;;;14.90;28.00;;;;;;5045751;28;20880;-78
2021/03/27 11:04:14;;;;;;;1.70;0.70;;;14.90;28.30;;;;;;5042375;28;20477;-78
2021/03/27 11:07:20;;;;;;;0.70;0.70;;;14.80;27.10;;;;;;5049667;28;21221;-77
2021/03/27 11:10:25;;;;;;;0.60;0.60;;;14.70;25.30;;;;;;5055543;28;20486;-78
2021/03/27 11:13:25;;;;;;;0.80;0.80;;;14.60;24.80;;;;;;5058276;28;20467;-78
2021/03/27 11:16:32;;;;;;;1.63;0.73;;;14.60;24.90;;;;;;5012636;28;20536;-77
2021/03/27 11:19:20;;;;;;;1.60;0.80;;;14.60;25.30;;;;;;5061251;28;20535;-77
2021/03/27 11:22:25;;;;;;;14.47;1.17;;;14.70;27.20;;;;;;5060456;28;20473;-78
2021/03/27 11:25:24;;;;;;;1.70;0.90;;;14.80;27.10;;;;;;5053148;28;20443;-78
2021/03/27 11:28:10;;;;;;;1.70;0.80;;;14.90;27.70;;;;;;5062158;28;20207;-79
2021/03/27 11:30:46;;;;;;;1.57;0.90;;;14.80;25.20;;;;;;5064098;28;20473;-79
2021/03/27 11:33:29;;;;;;;0.70;0.60;;;14.80;23.70;;;;;;5062183;28;20442;-79
2021/03/27 11:36:05;;;;;;;1.37;0.90;;;14.70;23.60;;;;;;5066045;28;20471;-78
2021/03/27 11:38:39;;;;;;;2.97;0.77;;;14.60;21.70;;;;;;5062408;28;20966;-77
2021/03/27 11:41:16;;;;;;;1.02;0.60;;;14.30;17.90;;;;;;5055234;28;20450;-77
2021/03/27 11:43:54;;;;;;;1.97;0.70;;;14.30;18.70;;;;;;5060237;28;20430;-78
2021/03/27 11:46:27;;;;;;;1.10;0.60;;;14.40;18.40;;;;;;5059367;28;20453;-78
2021/03/27 11:49:04;;;;;;;2.20;0.53;;;14.10;17.50;;;;;;5064224;28;20982;-78
2021/03/27 11:51:39;;;;;;;1.00;0.60;;;14.20;18.30;;;;;;5064364;28;20475;-78
2021/03/27 11:54:27;;;;;;;1.90;0.90;;;14.30;18.00;;;;;;5049368;28;20464;-77
2021/03/27 11:57:24;;;;;;;2.20;0.70;;;14.50;19.20;;;;;;5056434;28;20485;-79
2021/03/27 12:02:58;;;;;;;0.90;0.70;;;14.60;22.00;;;;;;5057948;28;20468;-76
2021/03/27 12:05:35;;;;;;;2.10;0.60;;;14.80;21.80;;;;;;5054307;28;20464;-78
2021/03/27 12:08:14;;;;;;;0.73;0.50;;;14.80;20.00;;;;;;5053764;28;20456;-78
2021/03/27 12:11:00;;;;;;;0.67;0.60;;;14.30;15.00;;;;;;5060119;28;20475;-79
2021/03/27 12:13:35;;;;;;;0.70;0.70;;;14.30;16.50;;;;;;5083741;28;20968;-78
2021/03/27 12:16:21;;;;;;;2.60;0.70;;;14.60;18.90;;;;;;5055332;28;20480;-77
2021/03/27 12:19:20;;;;;;;3.57;0.70;;;14.60;20.20;;;;;;5055934;28;20913;-77
2021/03/27 12:21:57;;;;;;;0.70;0.60;;;14.60;19.70;;;;;;5057522;28;20465;-77
2021/03/27 12:24:43;;;;;;;1.13;0.60;;;14.40;17.20;;;;;;5063080;28;20964;-76
2021/03/27 12:27:24;;;;;;;1.83;0.63;;;14.30;16.40;;;;;;5057623;28;20461;-76
2021/03/27 12:30:06;;;;;;;1.13;0.67;;;14.50;20.20;;;;;;5055617;28;20472;-76
2021/03/27 12:32:47;;;;;;;0.63;0.60;;;14.60;19.10;;;;;;5052805;28;20577;-78
2021/03/27 12:35:23;;;;;;;1.00;0.63;;;14.60;18.90;;;;;;5050392;28;20472;-77
2021/03/27 12:38:12;;;;;;;1.20;0.83;;;14.50;17.40;;;;;;5056286;28;20569;-76
2021/03/27 12:40:44;;;;;;;2.90;0.90;;;14.50;16.70;;;;;;5053594;28;20479;-78
2021/03/27 12:43:16;;;;;;;1.20;0.70;;;14.10;13.50;;;;;;5053642;28;20449;-75
2021/03/27 12:45:47;;;;;;;1.23;0.70;;;14.20;14.30;;;;;;5059039;28;20463;-77
2021/03/27 12:48:21;;;;;;;1.67;0.80;;;14.00;12.00;;;;;;5054639;28;20452;-77
2021/03/27 12:51:05;;;;;;;3.00;0.80;;;13.90;11.50;;;;;;5058394;28;20487;-78
2021/03/27 12:54:00;;;;;;;1.43;0.70;;;14.10;13.70;;;;;;5050977;28;20495;-79
2021/03/27 12:56:38;;;;;;;0.67;0.63;;;14.10;12.40;;;;;;5052090;28;20547;-77
2021/03/27 12:59:13;;;;;;;1.77;0.70;;;14.20;12.80;;;;;;5053636;28;20487;-78
2021/03/27 13:01:59;;;;;;;1.00;0.70;;;14.10;13.10;;;;;;5053368;28;20475;-78
2021/03/27 13:05:02;;;;;;;0.93;0.63;;;13.90;10.40;;;;;;5055887;28;20459;-77
2021/03/27 13:07:36;;;;;;;1.47;0.70;;;13.90;11.00;;;;;;5059265;28;20493;-79
2021/03/27 13:10:37;;;;;;;1.20;0.70;;;14.10;13.70;;;;;;5058611;28;20541;-78
2021/03/27 13:13:22;;;;;;;2.00;0.97;;;13.90;11.50;;;;;;5053944;28;20459;-78
2021/03/27 13:15:59;;;;;;;1.87;0.60;;;14.10;13.50;;;;;;5061692;28;20444;-78
2021/03/27 13:18:48;;;;;;;0.90;0.60;;;14.20;15.80;;;;;;5059169;28;20539;-78
2021/03/27 13:21:39;;;;;;;1.07;0.60;;;14.10;13.20;;;;;;5065305;28;20453;-79
2021/03/27 13:24:16;;;;;;;1.37;0.50;;;14.10;13.10;;;;;;5053252;28;20464;-79
2021/03/27 13:26:45;;;;;;;1.63;0.90;;;14.30;15.20;;;;;;5062358;28;20445;-79
2021/03/27 13:29:34;;;;;;;1.90;0.70;;;14.30;14.70;;;;;;5062402;28;20479;-79
2021/03/27 13:32:14;;;;;;;1.00;0.60;;;14.30;14.70;;;;;;5061985;28;20451;-77
2021/03/27 13:34:47;;;;;;;3.57;0.93;;;14.30;15.00;;;;;;5054692;28;20881;-78
2021/03/27 13:37:21;;;;;;;2.47;1.27;;;14.40;16.10;;;;;;5056118;28;20460;-77
2021/03/27 13:39:54;;;;;;;0.50;0.50;;;14.50;14.80;;;;;;5057531;28;20499;-78
2021/03/27 13:42:29;;;;;;;1.03;0.80;;;14.40;15.10;;;;;;5052143;28;20440;-78
2021/03/27 13:45:08;;;;;;;1.27;0.70;;;14.40;15.20;;;;;;5055239;28;21019;-79
2021/03/27 13:47:44;;;;;;;1.30;0.70;;;14.50;16.20;;;;;;5054050;28;20448;-77
2021/03/27 13:50:23;;;;;;;0.77;0.63;;;14.60;16.80;;;;;;5055420;28;20462;-77
2021/03/27 13:53:05;;;;;;;1.20;0.80;;;14.60;17.00;;;;;;5049823;28;20451;-77
2021/03/27 13:55:38;;;;;;;4.10;0.90;;;14.70;18.30;;;;;;5061924;28;20300;-75
2021/03/27 13:58:19;;;;;;;3.03;0.67;;;14.80;19.20;;;;;;5057798;28;22992;-76
2021/03/27 14:00:54;;;;;;;0.87;0.73;;;14.60;17.40;;;;;;5054760;28;20485;-77
2021/03/27 14:03:35;;;;;;;1.10;0.80;;;14.60;16.90;;;;;;5053905;28;21249;-76
2021/03/27 14:06:13;;;;;;;1.83;0.70;;;14.60;17.50;;;;;;5055355;28;20472;-77
2021/03/27 14:09:02;;;;;;;3.53;0.80;;;14.70;16.80;;;;;;5056708;28;20444;-76
2021/03/27 14:11:35;;;;;;;1.33;0.67;;;14.30;14.60;;;;;;5059998;28;21272;-76
2021/03/27 14:14:07;;;;;;;1.03;0.80;;;14.30;13.40;;;;;;5059670;28;20470;-77
2021/03/27 14:16:47;;;;;;;1.13;0.70;;;14.40;15.50;;;;;;5053693;28;20474;-76